sensor_id;sensor_type;location;lat;lon;timestamp;P1;durP1;ratioP1;P2;durP2;ratioP2
58946;SDS011;44724;52.332;4.978;2022-10-22T00:01:29;6.95;;;2.83;;
58946;SDS011;44724;52.332;4.978;2022-10-22T00:03:55;4.47;;;2.65;;
58946;SDS011;44724;52.332;4.978;2022-10-22T00:06:20;4.30;;;2.88;;
58946;SDS011;44724;52.332;4.978;2022-10-22T00:08:46;4.22;;;3.00;;
58946;SDS011;44724;52.332;4.978;2022-10-22T00:11:12;6.57;;;3.08;;
58946;SDS011;44724;52.332;4.978;2022-10-22T00:13:39;6.78;;;2.80;;
58946;SDS011;44724;52.332;4.978;2022-10-22T00:16:05;5.72;;;2.75;;
58946;SDS011;44724;52.332;4.978;2022-10-22T00:18:30;6.03;;;2.65;;
58946;SDS011;44724;52.332;4.978;2022-10-22T00:20:56;7.07;;;3.35;;
58946;SDS011;44724;52.332;4.978;2022-10-22T00:23:21;5.53;;;2.95;;
58946;SDS011;44724;52.332;4.978;2022-10-22T00:25:46;6.72;;;3.47;;
58946;SDS011;44724;52.332;4.978;2022-10-22T00:28:12;6.15;;;3.28;;
58946;SDS011;44724;52.332;4.978;2022-10-22T00:30:39;8.93;;;3.38;;
58946;SDS011;44724;52.332;4.978;2022-10-22T00:33:05;7.03;;;3.30;;
58946;SDS011;44724;52.332;4.978;2022-10-22T00:35:31;5.70;;;3.15;;
58946;SDS011;44724;52.332;4.978;2022-10-22T00:37:56;5.57;;;3.03;;
58946;SDS011;44724;52.332;4.978;2022-10-22T00:40:22;7.25;;;3.20;;
58946;SDS011;44724;52.332;4.978;2022-10-22T00:42:47;6.32;;;3.00;;
58946;SDS011;44724;52.332;4.978;2022-10-22T00:45:14;10.35;;;3.10;;
58946;SDS011;44724;52.332;4.978;2022-10-22T00:50:33;5.75;;;2.72;;
58946;SDS011;44724;52.332;4.978;2022-10-22T00:53:09;5.32;;;3.75;;
58946;SDS011;44724;52.332;4.978;2022-10-22T00:55:39;5.43;;;3.25;;
58946;SDS011;44724;52.332;4.978;2022-10-22T00:58:07;4.75;;;2.72;;
58946;SDS011;44724;52.332;4.978;2022-10-22T01:00:33;4.95;;;2.53;;
58946;SDS011;44724;52.332;4.978;2022-10-22T01:02:58;4.50;;;2.70;;
58946;SDS011;44724;52.332;4.978;2022-10-22T01:05:28;6.38;;;2.65;;
58946;SDS011;44724;52.332;4.978;2022-10-22T01:07:57;5.18;;;2.50;;
58946;SDS011;44724;52.332;4.978;2022-10-22T01:16:10;4.70;;;2.53;;
58946;SDS011;44724;52.332;4.978;2022-10-22T01:29:12;8.10;;;3.70;;
58946;SDS011;44724;52.332;4.978;2022-10-22T01:31:51;3.85;;;1.77;;
58946;SDS011;44724;52.332;4.978;2022-10-22T01:34:20;4.10;;;2.38;;
58946;SDS011;44724;52.332;4.978;2022-10-22T01:36:47;4.88;;;2.05;;
58946;SDS011;44724;52.332;4.978;2022-10-22T01:39:16;6.07;;;2.53;;
58946;SDS011;44724;52.332;4.978;2022-10-22T01:41:43;4.72;;;2.22;;
58946;SDS011;44724;52.332;4.978;2022-10-22T01:47:13;4.78;;;2.25;;
58946;SDS011;44724;52.332;4.978;2022-10-22T01:52:34;4.88;;;2.10;;
58946;SDS011;44724;52.332;4.978;2022-10-22T01:55:24;7.05;;;2.42;;
58946;SDS011;44724;52.332;4.978;2022-10-22T01:58:01;4.70;;;2.03;;
58946;SDS011;44724;52.332;4.978;2022-10-22T02:00:50;6.32;;;1.65;;
58946;SDS011;44724;52.332;4.978;2022-10-22T02:03:25;5.28;;;2.00;;
58946;SDS011;44724;52.332;4.978;2022-10-22T02:05:58;6.10;;;1.90;;
58946;SDS011;44724;52.332;4.978;2022-10-22T02:08:28;5.38;;;2.17;;
58946;SDS011;44724;52.332;4.978;2022-10-22T02:10:56;11.18;;;2.05;;
58946;SDS011;44724;52.332;4.978;2022-10-22T02:13:24;4.10;;;1.80;;
58946;SDS011;44724;52.332;4.978;2022-10-22T02:15:53;5.47;;;2.17;;
58946;SDS011;44724;52.332;4.978;2022-10-22T02:18:21;6.00;;;2.35;;
58946;SDS011;44724;52.332;4.978;2022-10-22T02:20:52;5.88;;;2.22;;
58946;SDS011;44724;52.332;4.978;2022-10-22T02:23:19;4.80;;;2.15;;
58946;SDS011;44724;52.332;4.978;2022-10-22T02:25:46;4.28;;;2.42;;
58946;SDS011;44724;52.332;4.978;2022-10-22T02:28:53;4.88;;;2.05;;
58946;SDS011;44724;52.332;4.978;2022-10-22T02:31:13;3.13;;;1.50;;
58946;SDS011;44724;52.332;4.978;2022-10-22T02:33:47;5.60;;;2.10;;
58946;SDS011;44724;52.332;4.978;2022-10-22T02:36:17;3.47;;;1.90;;
58946;SDS011;44724;52.332;4.978;2022-10-22T02:38:44;7.45;;;2.05;;
58946;SDS011;44724;52.332;4.978;2022-10-22T02:41:12;7.85;;;2.20;;
58946;SDS011;44724;52.332;4.978;2022-10-22T02:43:42;6.47;;;2.15;;
58946;SDS011;44724;52.332;4.978;2022-10-22T02:46:09;5.05;;;2.22;;
58946;SDS011;44724;52.332;4.978;2022-10-22T02:48:35;7.28;;;2.25;;
58946;SDS011;44724;52.332;4.978;2022-10-22T02:51:01;3.22;;;1.45;;
58946;SDS011;44724;52.332;4.978;2022-10-22T02:53:26;6.00;;;2.00;;
58946;SDS011;44724;52.332;4.978;2022-10-22T02:55:51;6.25;;;2.35;;
58946;SDS011;44724;52.332;4.978;2022-10-22T02:58:16;3.53;;;1.40;;
58946;SDS011;44724;52.332;4.978;2022-10-22T03:00:42;8.43;;;2.17;;
58946;SDS011;44724;52.332;4.978;2022-10-22T03:03:07;5.93;;;2.20;;
58946;SDS011;44724;52.332;4.978;2022-10-22T03:05:32;6.20;;;2.42;;
58946;SDS011;44724;52.332;4.978;2022-10-22T03:07:58;6.93;;;2.40;;
58946;SDS011;44724;52.332;4.978;2022-10-22T03:10:23;6.18;;;2.55;;
58946;SDS011;44724;52.332;4.978;2022-10-22T03:12:49;6.18;;;2.28;;
58946;SDS011;44724;52.332;4.978;2022-10-22T03:15:14;4.95;;;2.92;;
58946;SDS011;44724;52.332;4.978;2022-10-22T03:17:39;4.35;;;2.50;;
58946;SDS011;44724;52.332;4.978;2022-10-22T03:20:05;8.25;;;2.85;;
58946;SDS011;44724;52.332;4.978;2022-10-22T03:22:31;5.68;;;1.83;;
58946;SDS011;44724;52.332;4.978;2022-10-22T03:24:59;5.03;;;2.35;;
58946;SDS011;44724;52.332;4.978;2022-10-22T03:27:29;5.90;;;2.70;;
58946;SDS011;44724;52.332;4.978;2022-10-22T03:29:54;7.25;;;3.25;;
58946;SDS011;44724;52.332;4.978;2022-10-22T03:32:21;5.03;;;3.03;;
58946;SDS011;44724;52.332;4.978;2022-10-22T03:34:46;6.20;;;2.75;;
58946;SDS011;44724;52.332;4.978;2022-10-22T03:37:12;6.60;;;2.40;;
58946;SDS011;44724;52.332;4.978;2022-10-22T03:39:37;5.25;;;2.60;;
58946;SDS011;44724;52.332;4.978;2022-10-22T03:42:03;7.43;;;2.72;;
58946;SDS011;44724;52.332;4.978;2022-10-22T03:44:30;6.15;;;2.95;;
58946;SDS011;44724;52.332;4.978;2022-10-22T03:46:56;4.78;;;2.42;;
58946;SDS011;44724;52.332;4.978;2022-10-22T03:49:21;8.27;;;2.42;;
58946;SDS011;44724;52.332;4.978;2022-10-22T03:51:47;6.30;;;2.67;;
58946;SDS011;44724;52.332;4.978;2022-10-22T03:54:14;9.73;;;2.72;;
58946;SDS011;44724;52.332;4.978;2022-10-22T03:56:40;5.82;;;2.72;;
58946;SDS011;44724;52.332;4.978;2022-10-22T03:59:05;5.70;;;2.60;;
58946;SDS011;44724;52.332;4.978;2022-10-22T04:01:30;10.40;;;2.85;;
58946;SDS011;44724;52.332;4.978;2022-10-22T04:03:56;6.30;;;2.90;;
58946;SDS011;44724;52.332;4.978;2022-10-22T04:06:23;5.88;;;2.60;;
58946;SDS011;44724;52.332;4.978;2022-10-22T04:08:49;3.75;;;2.17;;
58946;SDS011;44724;52.332;4.978;2022-10-22T04:11:15;5.45;;;3.13;;
58946;SDS011;44724;52.332;4.978;2022-10-22T04:13:41;7.00;;;2.47;;
58946;SDS011;44724;52.332;4.978;2022-10-22T04:18:32;5.90;;;2.70;;
58946;SDS011;44724;52.332;4.978;2022-10-22T04:20:57;6.57;;;2.55;;
58946;SDS011;44724;52.332;4.978;2022-10-22T04:23:23;10.93;;;2.78;;
58946;SDS011;44724;52.332;4.978;2022-10-22T04:25:48;5.25;;;3.05;;
58946;SDS011;44724;52.332;4.978;2022-10-22T04:28:14;7.38;;;3.00;;
58946;SDS011;44724;52.332;4.978;2022-10-22T04:30:39;5.03;;;2.10;;
58946;SDS011;44724;52.332;4.978;2022-10-22T04:33:04;6.63;;;2.75;;
58946;SDS011;44724;52.332;4.978;2022-10-22T04:35:30;6.43;;;2.53;;
58946;SDS011;44724;52.332;4.978;2022-10-22T04:37:55;7.40;;;2.47;;
58946;SDS011;44724;52.332;4.978;2022-10-22T04:40:20;7.47;;;2.47;;
58946;SDS011;44724;52.332;4.978;2022-10-22T04:42:46;7.65;;;2.65;;
58946;SDS011;44724;52.332;4.978;2022-10-22T04:45:11;8.05;;;2.97;;
58946;SDS011;44724;52.332;4.978;2022-10-22T04:47:37;7.97;;;2.88;;
58946;SDS011;44724;52.332;4.978;2022-10-22T04:50:02;8.63;;;2.85;;
58946;SDS011;44724;52.332;4.978;2022-10-22T04:52:29;5.57;;;2.60;;
58946;SDS011;44724;52.332;4.978;2022-10-22T04:54:55;6.35;;;2.67;;
58946;SDS011;44724;52.332;4.978;2022-10-22T04:57:23;5.20;;;2.63;;
58946;SDS011;44724;52.332;4.978;2022-10-22T04:59:49;6.50;;;2.60;;
58946;SDS011;44724;52.332;4.978;2022-10-22T05:02:14;6.13;;;2.80;;
58946;SDS011;44724;52.332;4.978;2022-10-22T05:04:42;7.65;;;2.40;;
58946;SDS011;44724;52.332;4.978;2022-10-22T05:07:08;5.38;;;2.50;;
58946;SDS011;44724;52.332;4.978;2022-10-22T05:09:33;4.45;;;2.53;;
58946;SDS011;44724;52.332;4.978;2022-10-22T05:11:58;6.05;;;2.17;;
58946;SDS011;44724;52.332;4.978;2022-10-22T05:14:24;5.35;;;2.60;;
58946;SDS011;44724;52.332;4.978;2022-10-22T05:16:50;8.55;;;2.47;;
58946;SDS011;44724;52.332;4.978;2022-10-22T05:19:17;7.70;;;2.70;;
58946;SDS011;44724;52.332;4.978;2022-10-22T05:21:45;4.30;;;2.13;;
58946;SDS011;44724;52.332;4.978;2022-10-22T05:24:10;5.43;;;2.20;;
58946;SDS011;44724;52.332;4.978;2022-10-22T05:26:36;9.65;;;4.75;;
58946;SDS011;44724;52.332;4.978;2022-10-22T05:29:02;9.05;;;3.70;;
58946;SDS011;44724;52.332;4.978;2022-10-22T05:31:30;6.95;;;2.88;;
58946;SDS011;44724;52.332;4.978;2022-10-22T05:33:55;8.15;;;2.22;;
58946;SDS011;44724;52.332;4.978;2022-10-22T05:36:21;6.40;;;2.40;;
58946;SDS011;44724;52.332;4.978;2022-10-22T05:38:47;4.82;;;2.55;;
58946;SDS011;44724;52.332;4.978;2022-10-22T05:41:16;6.63;;;2.38;;
58946;SDS011;44724;52.332;4.978;2022-10-22T05:43:49;5.18;;;2.58;;
58946;SDS011;44724;52.332;4.978;2022-10-22T05:46:16;7.97;;;2.25;;
58946;SDS011;44724;52.332;4.978;2022-10-22T05:48:43;4.60;;;2.75;;
58946;SDS011;44724;52.332;4.978;2022-10-22T05:51:10;5.55;;;2.42;;
58946;SDS011;44724;52.332;4.978;2022-10-22T05:53:37;5.20;;;2.13;;
58946;SDS011;44724;52.332;4.978;2022-10-22T05:56:05;5.97;;;2.60;;
58946;SDS011;44724;52.332;4.978;2022-10-22T05:58:32;7.40;;;2.28;;
58946;SDS011;44724;52.332;4.978;2022-10-22T06:01:05;3.92;;;2.80;;
58946;SDS011;44724;52.332;4.978;2022-10-22T06:03:33;6.28;;;2.80;;
58946;SDS011;44724;52.332;4.978;2022-10-22T06:06:03;5.20;;;2.83;;
58946;SDS011;44724;52.332;4.978;2022-10-22T06:08:39;4.82;;;2.65;;
58946;SDS011;44724;52.332;4.978;2022-10-22T06:11:04;5.15;;;2.90;;
58946;SDS011;44724;52.332;4.978;2022-10-22T06:13:30;5.75;;;2.35;;
58946;SDS011;44724;52.332;4.978;2022-10-22T06:15:56;10.52;;;2.90;;
58946;SDS011;44724;52.332;4.978;2022-10-22T06:18:22;15.38;;;4.00;;
58946;SDS011;44724;52.332;4.978;2022-10-22T06:20:47;6.82;;;2.80;;
58946;SDS011;44724;52.332;4.978;2022-10-22T06:23:13;7.38;;;3.50;;
58946;SDS011;44724;52.332;4.978;2022-10-22T06:25:39;7.05;;;2.65;;
58946;SDS011;44724;52.332;4.978;2022-10-22T06:28:08;7.05;;;2.92;;
58946;SDS011;44724;52.332;4.978;2022-10-22T06:30:35;7.30;;;2.97;;
58946;SDS011;44724;52.332;4.978;2022-10-22T06:33:01;5.10;;;2.17;;
58946;SDS011;44724;52.332;4.978;2022-10-22T06:35:30;11.60;;;3.13;;
58946;SDS011;44724;52.332;4.978;2022-10-22T06:37:55;5.55;;;2.60;;
58946;SDS011;44724;52.332;4.978;2022-10-22T06:40:20;6.65;;;2.75;;
58946;SDS011;44724;52.332;4.978;2022-10-22T06:42:46;10.15;;;2.65;;
58946;SDS011;44724;52.332;4.978;2022-10-22T06:45:11;7.13;;;2.50;;
58946;SDS011;44724;52.332;4.978;2022-10-22T06:47:37;6.55;;;2.30;;
58946;SDS011;44724;52.332;4.978;2022-10-22T06:50:02;8.40;;;3.15;;
58946;SDS011;44724;52.332;4.978;2022-10-22T06:52:28;8.93;;;2.95;;
58946;SDS011;44724;52.332;4.978;2022-10-22T06:54:53;4.68;;;2.30;;
58946;SDS011;44724;52.332;4.978;2022-10-22T06:57:18;8.15;;;2.20;;
58946;SDS011;44724;52.332;4.978;2022-10-22T06:59:44;11.35;;;2.65;;
58946;SDS011;44724;52.332;4.978;2022-10-22T07:02:10;3.97;;;2.67;;
58946;SDS011;44724;52.332;4.978;2022-10-22T07:04:35;5.20;;;2.03;;
58946;SDS011;44724;52.332;4.978;2022-10-22T07:07:01;3.53;;;1.50;;
58946;SDS011;44724;52.332;4.978;2022-10-22T07:09:26;6.63;;;2.03;;
58946;SDS011;44724;52.332;4.978;2022-10-22T07:11:51;6.72;;;2.25;;
58946;SDS011;44724;52.332;4.978;2022-10-22T07:14:17;6.35;;;2.30;;
58946;SDS011;44724;52.332;4.978;2022-10-22T07:16:42;7.05;;;2.15;;
58946;SDS011;44724;52.332;4.978;2022-10-22T07:19:09;5.13;;;2.85;;
58946;SDS011;44724;52.332;4.978;2022-10-22T07:21:35;5.55;;;2.60;;
58946;SDS011;44724;52.332;4.978;2022-10-22T07:24:01;6.22;;;2.25;;
58946;SDS011;44724;52.332;4.978;2022-10-22T07:26:27;7.35;;;2.60;;
58946;SDS011;44724;52.332;4.978;2022-10-22T07:28:55;8.18;;;2.70;;
58946;SDS011;44724;52.332;4.978;2022-10-22T07:31:21;8.73;;;2.65;;
58946;SDS011;44724;52.332;4.978;2022-10-22T07:33:46;6.80;;;2.65;;
58946;SDS011;44724;52.332;4.978;2022-10-22T07:36:15;3.95;;;2.42;;
58946;SDS011;44724;52.332;4.978;2022-10-22T07:38:44;7.25;;;2.83;;
58946;SDS011;44724;52.332;4.978;2022-10-22T07:41:14;7.97;;;2.45;;
58946;SDS011;44724;52.332;4.978;2022-10-22T07:43:40;4.35;;;2.35;;
58946;SDS011;44724;52.332;4.978;2022-10-22T07:46:05;8.35;;;2.70;;
58946;SDS011;44724;52.332;4.978;2022-10-22T07:48:32;6.47;;;2.55;;
58946;SDS011;44724;52.332;4.978;2022-10-22T07:51:01;6.32;;;2.20;;
58946;SDS011;44724;52.332;4.978;2022-10-22T07:53:27;6.65;;;2.20;;
58946;SDS011;44724;52.332;4.978;2022-10-22T07:55:52;7.88;;;2.60;;
58946;SDS011;44724;52.332;4.978;2022-10-22T07:58:19;6.80;;;2.35;;
58946;SDS011;44724;52.332;4.978;2022-10-22T08:00:45;6.15;;;2.10;;
58946;SDS011;44724;52.332;4.978;2022-10-22T08:03:11;11.60;;;2.85;;
58946;SDS011;44724;52.332;4.978;2022-10-22T08:05:37;5.88;;;2.28;;
58946;SDS011;44724;52.332;4.978;2022-10-22T08:08:03;3.47;;;1.48;;
58946;SDS011;44724;52.332;4.978;2022-10-22T08:10:32;6.90;;;2.67;;
58946;SDS011;44724;52.332;4.978;2022-10-22T08:12:58;8.98;;;2.30;;
58946;SDS011;44724;52.332;4.978;2022-10-22T08:15:23;6.35;;;2.25;;
58946;SDS011;44724;52.332;4.978;2022-10-22T08:17:50;6.75;;;2.00;;
58946;SDS011;44724;52.332;4.978;2022-10-22T08:20:22;7.25;;;1.90;;
58946;SDS011;44724;52.332;4.978;2022-10-22T08:22:47;7.55;;;2.08;;
58946;SDS011;44724;52.332;4.978;2022-10-22T08:25:12;8.05;;;2.13;;
58946;SDS011;44724;52.332;4.978;2022-10-22T08:27:39;9.73;;;1.92;;
58946;SDS011;44724;52.332;4.978;2022-10-22T08:30:05;10.88;;;2.97;;
58946;SDS011;44724;52.332;4.978;2022-10-22T08:32:31;9.95;;;2.25;;
58946;SDS011;44724;52.332;4.978;2022-10-22T08:34:59;6.95;;;2.25;;
58946;SDS011;44724;52.332;4.978;2022-10-22T08:37:25;6.43;;;2.05;;
58946;SDS011;44724;52.332;4.978;2022-10-22T08:39:50;8.20;;;2.38;;
58946;SDS011;44724;52.332;4.978;2022-10-22T08:45:07;5.68;;;2.20;;
58946;SDS011;44724;52.332;4.978;2022-10-22T08:47:46;8.05;;;2.70;;
58946;SDS011;44724;52.332;4.978;2022-10-22T08:50:17;8.32;;;2.63;;
58946;SDS011;44724;52.332;4.978;2022-10-22T08:52:49;4.65;;;2.22;;
58946;SDS011;44724;52.332;4.978;2022-10-22T08:55:17;9.40;;;2.20;;
58946;SDS011;44724;52.332;4.978;2022-10-22T09:00:19;9.73;;;2.60;;
58946;SDS011;44724;52.332;4.978;2022-10-22T09:08:00;7.63;;;2.10;;
58946;SDS011;44724;52.332;4.978;2022-10-22T09:10:28;5.32;;;2.00;;
58946;SDS011;44724;52.332;4.978;2022-10-22T09:12:57;7.13;;;2.23;;
58946;SDS011;44724;52.332;4.978;2022-10-22T09:15:23;7.35;;;2.30;;
58946;SDS011;44724;52.332;4.978;2022-10-22T09:23:15;5.03;;;2.20;;
58946;SDS011;44724;52.332;4.978;2022-10-22T09:25:49;6.20;;;1.90;;
58946;SDS011;44724;52.332;4.978;2022-10-22T09:28:16;6.38;;;2.20;;
58946;SDS011;44724;52.332;4.978;2022-10-22T09:30:42;6.38;;;2.15;;
58946;SDS011;44724;52.332;4.978;2022-10-22T09:33:19;4.65;;;1.70;;
58946;SDS011;44724;52.332;4.978;2022-10-22T09:35:47;3.95;;;1.80;;
58946;SDS011;44724;52.332;4.978;2022-10-22T09:38:13;5.03;;;1.60;;
58946;SDS011;44724;52.332;4.978;2022-10-22T09:40:45;5.53;;;1.70;;
58946;SDS011;44724;52.332;4.978;2022-10-22T09:43:12;6.35;;;2.25;;
58946;SDS011;44724;52.332;4.978;2022-10-22T09:45:39;5.13;;;2.15;;
58946;SDS011;44724;52.332;4.978;2022-10-22T09:48:08;6.07;;;1.95;;
58946;SDS011;44724;52.332;4.978;2022-10-22T09:50:42;7.80;;;2.20;;
58946;SDS011;44724;52.332;4.978;2022-10-22T09:55:53;9.02;;;2.00;;
58946;SDS011;44724;52.332;4.978;2022-10-22T09:58:24;8.63;;;1.60;;
58946;SDS011;44724;52.332;4.978;2022-10-22T10:00:54;6.07;;;1.70;;
58946;SDS011;44724;52.332;4.978;2022-10-22T10:03:23;8.02;;;1.90;;
58946;SDS011;44724;52.332;4.978;2022-10-22T10:05:55;4.53;;;1.83;;
58946;SDS011;44724;52.332;4.978;2022-10-22T10:08:22;5.00;;;1.65;;
58946;SDS011;44724;52.332;4.978;2022-10-22T10:10:52;4.78;;;1.65;;
58946;SDS011;44724;52.332;4.978;2022-10-22T10:14:00;5.15;;;1.67;;
58946;SDS011;44724;52.332;4.978;2022-10-22T10:27:39;6.80;;;1.52;;
58946;SDS011;44724;52.332;4.978;2022-10-22T10:30:12;5.03;;;1.83;;
58946;SDS011;44724;52.332;4.978;2022-10-22T10:46:42;6.65;;;1.75;;
58946;SDS011;44724;52.332;4.978;2022-10-22T10:51:56;4.22;;;1.45;;
58946;SDS011;44724;52.332;4.978;2022-10-22T10:56:55;7.25;;;2.10;;
58946;SDS011;44724;52.332;4.978;2022-10-22T11:00:08;8.43;;;1.55;;
58946;SDS011;44724;52.332;4.978;2022-10-22T11:05:11;6.97;;;1.40;;
58946;SDS011;44724;52.332;4.978;2022-10-22T11:07:47;7.32;;;1.60;;
58946;SDS011;44724;52.332;4.978;2022-10-22T11:10:21;6.20;;;1.38;;
58946;SDS011;44724;52.332;4.978;2022-10-22T11:12:52;4.43;;;1.08;;
58946;SDS011;44724;52.332;4.978;2022-10-22T11:15:25;6.80;;;1.17;;
58946;SDS011;44724;52.332;4.978;2022-10-22T11:18:23;5.10;;;1.05;;
58946;SDS011;44724;52.332;4.978;2022-10-22T11:21:20;2.47;;;0.68;;
58946;SDS011;44724;52.332;4.978;2022-10-22T11:26:42;3.53;;;1.08;;
58946;SDS011;44724;52.332;4.978;2022-10-22T11:29:14;6.85;;;1.15;;
58946;SDS011;44724;52.332;4.978;2022-10-22T11:31:46;8.07;;;1.83;;
58946;SDS011;44724;52.332;4.978;2022-10-22T11:34:15;5.07;;;0.77;;
58946;SDS011;44724;52.332;4.978;2022-10-22T11:36:42;5.15;;;0.85;;
58946;SDS011;44724;52.332;4.978;2022-10-22T11:39:25;5.93;;;0.77;;
58946;SDS011;44724;52.332;4.978;2022-10-22T11:42:19;5.35;;;1.05;;
58946;SDS011;44724;52.332;4.978;2022-10-22T11:44:59;4.65;;;1.13;;
58946;SDS011;44724;52.332;4.978;2022-10-22T11:47:33;7.88;;;1.33;;
58946;SDS011;44724;52.332;4.978;2022-10-22T11:52:48;6.75;;;1.20;;
58946;SDS011;44724;52.332;4.978;2022-10-22T11:55:29;6.95;;;0.90;;
58946;SDS011;44724;52.332;4.978;2022-10-22T11:58:29;7.90;;;1.30;;
58946;SDS011;44724;52.332;4.978;2022-10-22T12:08:41;5.15;;;1.02;;
58946;SDS011;44724;52.332;4.978;2022-10-22T12:16:26;6.30;;;1.30;;
58946;SDS011;44724;52.332;4.978;2022-10-22T12:19:00;5.75;;;1.20;;
58946;SDS011;44724;52.332;4.978;2022-10-22T12:21:30;7.38;;;1.35;;
58946;SDS011;44724;52.332;4.978;2022-10-22T12:23:58;10.70;;;1.60;;
58946;SDS011;44724;52.332;4.978;2022-10-22T12:26:29;7.55;;;1.38;;
58946;SDS011;44724;52.332;4.978;2022-10-22T12:28:56;6.97;;;1.38;;
58946;SDS011;44724;52.332;4.978;2022-10-22T12:31:23;8.57;;;1.45;;
58946;SDS011;44724;52.332;4.978;2022-10-22T12:33:56;8.23;;;1.50;;
58946;SDS011;44724;52.332;4.978;2022-10-22T12:36:24;10.13;;;1.30;;
58946;SDS011;44724;52.332;4.978;2022-10-22T12:38:53;7.75;;;1.60;;
58946;SDS011;44724;52.332;4.978;2022-10-22T12:41:28;11.45;;;1.63;;
58946;SDS011;44724;52.332;4.978;2022-10-22T12:43:58;8.30;;;1.48;;
58946;SDS011;44724;52.332;4.978;2022-10-22T12:46:24;5.53;;;1.40;;
58946;SDS011;44724;52.332;4.978;2022-10-22T12:48:52;8.82;;;1.77;;
58946;SDS011;44724;52.332;4.978;2022-10-22T12:51:20;7.72;;;1.35;;
58946;SDS011;44724;52.332;4.978;2022-10-22T12:53:46;9.80;;;1.52;;
58946;SDS011;44724;52.332;4.978;2022-10-22T12:56:30;8.02;;;1.50;;
58946;SDS011;44724;52.332;4.978;2022-10-22T12:58:58;5.72;;;1.45;;
58946;SDS011;44724;52.332;4.978;2022-10-22T13:01:27;8.25;;;1.48;;
58946;SDS011;44724;52.332;4.978;2022-10-22T13:04:04;7.65;;;1.50;;
58946;SDS011;44724;52.332;4.978;2022-10-22T13:06:45;8.05;;;1.58;;
58946;SDS011;44724;52.332;4.978;2022-10-22T13:09:16;8.93;;;1.33;;
58946;SDS011;44724;52.332;4.978;2022-10-22T13:11:48;6.97;;;1.23;;
58946;SDS011;44724;52.332;4.978;2022-10-22T13:24:49;9.93;;;1.27;;
58946;SDS011;44724;52.332;4.978;2022-10-22T13:27:15;9.23;;;1.30;;
58946;SDS011;44724;52.332;4.978;2022-10-22T13:29:40;8.18;;;1.70;;
58946;SDS011;44724;52.332;4.978;2022-10-22T13:32:16;7.22;;;1.58;;
58946;SDS011;44724;52.332;4.978;2022-10-22T13:34:57;8.43;;;1.60;;
58946;SDS011;44724;52.332;4.978;2022-10-22T13:37:27;9.43;;;1.70;;
58946;SDS011;44724;52.332;4.978;2022-10-22T13:39:58;10.32;;;2.00;;
58946;SDS011;44724;52.332;4.978;2022-10-22T13:42:24;5.10;;;1.40;;
58946;SDS011;44724;52.332;4.978;2022-10-22T13:44:49;6.43;;;1.30;;
58946;SDS011;44724;52.332;4.978;2022-10-22T13:47:23;8.90;;;2.67;;
58946;SDS011;44724;52.332;4.978;2022-10-22T13:50:00;7.75;;;1.35;;
58946;SDS011;44724;52.332;4.978;2022-10-22T13:52:30;6.72;;;1.50;;
58946;SDS011;44724;52.332;4.978;2022-10-22T13:57:44;7.05;;;1.33;;
58946;SDS011;44724;52.332;4.978;2022-10-22T14:00:13;8.02;;;1.50;;
58946;SDS011;44724;52.332;4.978;2022-10-22T14:02:48;8.15;;;1.23;;
58946;SDS011;44724;52.332;4.978;2022-10-22T14:05:16;8.10;;;1.40;;
58946;SDS011;44724;52.332;4.978;2022-10-22T14:07:42;5.88;;;1.23;;
58946;SDS011;44724;52.332;4.978;2022-10-22T14:12:44;5.18;;;1.42;;
58946;SDS011;44724;52.332;4.978;2022-10-22T14:15:13;8.02;;;1.40;;
58946;SDS011;44724;52.332;4.978;2022-10-22T14:17:40;7.90;;;1.90;;
58946;SDS011;44724;52.332;4.978;2022-10-22T14:20:19;7.55;;;1.50;;
58946;SDS011;44724;52.332;4.978;2022-10-22T14:22:47;7.93;;;1.40;;
58946;SDS011;44724;52.332;4.978;2022-10-22T14:25:16;4.82;;;1.10;;
58946;SDS011;44724;52.332;4.978;2022-10-22T14:27:44;6.15;;;1.10;;
58946;SDS011;44724;52.332;4.978;2022-10-22T14:30:12;6.55;;;1.33;;
58946;SDS011;44724;52.332;4.978;2022-10-22T14:32:48;8.10;;;1.38;;
58946;SDS011;44724;52.332;4.978;2022-10-22T14:35:16;4.88;;;1.40;;
58946;SDS011;44724;52.332;4.978;2022-10-22T14:37:44;10.48;;;1.73;;
58946;SDS011;44724;52.332;4.978;2022-10-22T14:40:11;6.72;;;1.30;;
58946;SDS011;44724;52.332;4.978;2022-10-22T14:42:39;7.80;;;1.73;;
58946;SDS011;44724;52.332;4.978;2022-10-22T14:45:08;7.85;;;1.50;;
58946;SDS011;44724;52.332;4.978;2022-10-22T14:47:38;8.50;;;2.08;;
58946;SDS011;44724;52.332;4.978;2022-10-22T14:50:04;6.28;;;1.40;;
58946;SDS011;44724;52.332;4.978;2022-10-22T14:52:30;5.85;;;1.25;;
58946;SDS011;44724;52.332;4.978;2022-10-22T14:54:56;6.07;;;1.35;;
58946;SDS011;44724;52.332;4.978;2022-10-22T14:57:21;8.15;;;1.70;;
58946;SDS011;44724;52.332;4.978;2022-10-22T14:59:46;8.20;;;1.70;;
58946;SDS011;44724;52.332;4.978;2022-10-22T15:02:12;7.55;;;1.10;;
58946;SDS011;44724;52.332;4.978;2022-10-22T15:04:40;9.45;;;1.25;;
58946;SDS011;44724;52.332;4.978;2022-10-22T15:07:05;8.95;;;1.38;;
58946;SDS011;44724;52.332;4.978;2022-10-22T15:09:31;7.75;;;1.30;;
58946;SDS011;44724;52.332;4.978;2022-10-22T15:11:56;10.18;;;1.70;;
58946;SDS011;44724;52.332;4.978;2022-10-22T15:14:22;8.52;;;1.35;;
58946;SDS011;44724;52.332;4.978;2022-10-22T15:16:47;5.53;;;1.30;;
58946;SDS011;44724;52.332;4.978;2022-10-22T15:19:13;4.88;;;1.02;;
58946;SDS011;44724;52.332;4.978;2022-10-22T15:21:38;4.60;;;0.80;;
58946;SDS011;44724;52.332;4.978;2022-10-22T15:24:03;5.45;;;1.27;;
58946;SDS011;44724;52.332;4.978;2022-10-22T15:26:29;5.07;;;1.08;;
58946;SDS011;44724;52.332;4.978;2022-10-22T15:28:55;8.73;;;1.10;;
58946;SDS011;44724;52.332;4.978;2022-10-22T15:31:40;7.47;;;1.20;;
58946;SDS011;44724;52.332;4.978;2022-10-22T15:36:49;5.90;;;1.10;;
58946;SDS011;44724;52.332;4.978;2022-10-22T15:39:15;6.57;;;1.10;;
58946;SDS011;44724;52.332;4.978;2022-10-22T15:41:41;8.60;;;1.60;;
58946;SDS011;44724;52.332;4.978;2022-10-22T15:44:06;6.60;;;1.58;;
58946;SDS011;44724;52.332;4.978;2022-10-22T15:46:38;8.60;;;1.20;;
58946;SDS011;44724;52.332;4.978;2022-10-22T15:49:03;7.28;;;1.30;;
58946;SDS011;44724;52.332;4.978;2022-10-22T15:51:35;7.35;;;1.33;;
58946;SDS011;44724;52.332;4.978;2022-10-22T15:54:01;6.80;;;1.60;;
58946;SDS011;44724;52.332;4.978;2022-10-22T15:56:27;9.27;;;1.90;;
58946;SDS011;44724;52.332;4.978;2022-10-22T15:58:59;8.50;;;1.60;;
58946;SDS011;44724;52.332;4.978;2022-10-22T16:01:30;6.07;;;1.40;;
58946;SDS011;44724;52.332;4.978;2022-10-22T16:03:58;9.75;;;2.10;;
58946;SDS011;44724;52.332;4.978;2022-10-22T16:06:34;7.47;;;1.88;;
58946;SDS011;44724;52.332;4.978;2022-10-22T16:09:05;8.20;;;1.02;;
58946;SDS011;44724;52.332;4.978;2022-10-22T16:11:33;7.63;;;1.77;;
58946;SDS011;44724;52.332;4.978;2022-10-22T16:13:59;10.52;;;1.90;;
58946;SDS011;44724;52.332;4.978;2022-10-22T16:16:26;7.18;;;1.40;;
58946;SDS011;44724;52.332;4.978;2022-10-22T16:18:53;7.32;;;1.90;;
58946;SDS011;44724;52.332;4.978;2022-10-22T16:21:19;9.80;;;1.80;;
58946;SDS011;44724;52.332;4.978;2022-10-22T16:23:46;11.90;;;2.30;;
58946;SDS011;44724;52.332;4.978;2022-10-22T16:26:12;5.78;;;1.20;;
58946;SDS011;44724;52.332;4.978;2022-10-22T16:28:39;7.85;;;1.60;;
58946;SDS011;44724;52.332;4.978;2022-10-22T16:31:08;9.10;;;1.50;;
58946;SDS011;44724;52.332;4.978;2022-10-22T16:33:36;7.88;;;1.65;;
58946;SDS011;44724;52.332;4.978;2022-10-22T16:36:06;7.50;;;1.83;;
58946;SDS011;44724;52.332;4.978;2022-10-22T16:38:41;10.63;;;1.70;;
58946;SDS011;44724;52.332;4.978;2022-10-22T16:41:11;9.13;;;1.80;;
58946;SDS011;44724;52.332;4.978;2022-10-22T16:43:42;7.68;;;1.83;;
58946;SDS011;44724;52.332;4.978;2022-10-22T16:46:12;11.55;;;2.20;;
58946;SDS011;44724;52.332;4.978;2022-10-22T16:48:42;7.75;;;1.92;;
58946;SDS011;44724;52.332;4.978;2022-10-22T16:51:09;10.88;;;2.80;;
58946;SDS011;44724;52.332;4.978;2022-10-22T16:53:36;11.70;;;2.78;;